Time;durP1;ratioP1;P1;durP2;ratioP2;P2;SDS_P1;SDS_P2;PMS_P1;PMS_P2;Temp;Humidity;BMP_temperature;BMP_pressure;BME280_temperature;BME280_humidity;BME280_pressure;Samples;Min_cycle;Max_cycle;Signal;HPM_P1;HPM_P2
2022/01/08 00:01:52;;;;;;;5.53;1.20;;;;;;;-2.71;100.00;99669.47;4972214;28;20137;-64
2022/01/08 00:04:37;;;;;;;2.72;1.60;;;;;;;-2.62;100.00;99676.63;4985726;28;20490;-63
2022/01/08 00:07:22;;;;;;;3.20;1.30;;;;;;;-2.79;100.00;99683.03;4987491;28;20057;-64
2022/01/08 00:10:08;;;;;;;1.80;0.98;;;;;;;-2.96;100.00;99687.72;4957240;28;20049;-63
2022/01/08 00:12:53;;;;;;;4.03;1.50;;;;;;;-2.98;100.00;99696.25;4986453;28;20124;-63
2022/01/08 00:15:38;;;;;;;2.65;1.65;;;;;;;-2.90;100.00;99705.16;4988023;28;20057;-63
2022/01/08 00:18:23;;;;;;;3.15;1.30;;;;;;;-2.79;100.00;99711.56;4972333;28;20061;-64
2022/01/08 00:21:08;;;;;;;3.83;1.60;;;;;;;-2.60;100.00;99712.19;4988140;28;20050;-63
2022/01/08 00:23:53;;;;;;;1.48;0.98;;;;;;;-2.69;100.00;99698.91;4985277;28;20072;-67
2022/01/08 00:26:38;;;;;;;2.58;1.40;;;;;;;-2.63;100.00;99722.47;4985727;28;20121;-63
2022/01/08 00:29:22;;;;;;;3.35;1.20;;;;;;;-2.73;100.00;99711.78;4968786;28;20057;-63
2022/01/08 00:32:07;;;;;;;2.15;1.10;;;;;;;-2.74;100.00;99723.84;4984863;28;20092;-61
2022/01/08 00:34:51;;;;;;;3.35;1.30;;;;;;;-2.71;100.00;99723.06;4980003;28;20057;-68
2022/01/08 00:37:37;;;;;;;4.03;1.48;;;;;;;-2.78;100.00;99726.28;4968600;28;20553;-65
2022/01/08 00:40:23;;;;;;;3.15;1.27;;;;;;;-2.83;100.00;99727.88;4982293;28;20057;-65
2022/01/08 00:43:08;;;;;;;3.42;1.35;;;;;;;-2.89;100.00;99748.44;4969811;28;20532;-61
2022/01/08 00:45:53;;;;;;;;;;;;;;;-2.83;100.00;99756.41;4970528;28;20581;-65
2022/01/08 00:48:37;;;;;;;2.35;1.63;;;;;;;-2.75;100.00;99758.41;4974286;28;20308;-64
2022/01/08 00:51:22;;;;;;;3.92;1.67;;;;;;;-2.73;100.00;99756.72;4979214;28;20670;-62
2022/01/08 00:54:06;;;;;;;2.80;1.77;;;;;;;-2.74;100.00;99754.97;4954256;28;20049;-56
2022/01/08 00:56:51;;;;;;;3.30;1.40;;;;;;;-2.60;100.00;99748.53;4966973;28;20053;-61
2022/01/08 00:59:35;;;;;;;3.15;1.25;;;;;;;-2.66;100.00;99743.13;4980759;28;20057;-57
2022/01/08 01:02:20;;;;;;;3.08;1.67;;;;;;;-2.71;100.00;99756.78;4986376;28;20112;-62
2022/01/08 01:05:05;;;;;;;3.08;1.67;;;;;;;-2.72;100.00;99778.38;4968027;28;20049;-60
2022/01/08 01:07:50;;;;;;;2.80;1.50;;;;;;;-2.70;100.00;99772.41;4957273;28;20085;-61
2022/01/08 01:10:35;;;;;;;1.92;1.38;;;;;;;-2.64;100.00;99771.72;4985381;28;20138;-62
2022/01/08 01:13:20;;;;;;;3.50;1.60;;;;;;;-2.84;100.00;99773.69;4971405;28;20137;-64
2022/01/08 01:16:05;;;;;;;3.60;1.50;;;;;;;-2.71;100.00;99791.41;4947714;28;20073;-63
2022/01/08 01:18:51;;;;;;;3.70;1.55;;;;;;;-2.81;100.00;99799.72;4957157;28;20626;-60
2022/01/08 01:21:37;;;;;;;2.22;1.17;;;;;;;-2.72;100.00;99791.34;4955959;28;20077;-60
2022/01/08 01:24:25;;;;;;;3.00;1.25;;;;;;;-2.88;100.00;99808.16;4981485;28;20196;-60
2022/01/08 01:43:36;;;;;;;1.88;0.93;;;;;;;-2.99;100.00;99835.44;4889197;29;20116;-64
2022/01/08 01:49:15;;;;;;;2.40;1.17;;;;;;;-3.17;100.00;99845.16;4888432;29;20556;-63
2022/01/08 01:52:02;;;;;;;1.88;1.10;;;;;;;-3.10;100.00;99849.72;4896543;29;20143;-64
2022/01/08 01:54:47;;;;;;;2.08;1.30;;;;;;;-2.89;100.00;99850.44;4894080;29;20071;-66
2022/01/08 01:57:32;;;;;;;2.90;1.00;;;;;;;-2.97;100.00;99851.03;4904168;29;20424;-64
2022/01/08 02:00:19;;;;;;;3.72;1.20;;;;;;;-3.02;100.00;99870.72;4863870;29;20182;-65
2022/01/08 02:03:03;;;;;;;;;;;;;;;-3.04;100.00;99873.28;4874222;29;20051;-66
2022/01/08 02:05:48;;;;;;;1.40;0.90;;;;;;;-3.07;100.00;99874.88;4883365;29;20422;-64
2022/01/08 02:08:40;;;;;;;2.88;1.00;;;;;;;-2.86;100.00;99871.31;4868508;29;20056;-62
2022/01/08 02:11:25;;;;;;;2.20;1.30;;;;;;;-2.96;100.00;99887.41;4928377;29;20526;-64
2022/01/08 02:14:09;;;;;;;3.08;1.10;;;;;;;-2.99;100.00;99884.69;4961309;28;20064;-63
2022/01/08 02:16:55;;;;;;;3.00;1.00;;;;;;;-2.89;100.00;99881.56;4956358;28;20096;-63
2022/01/08 02:19:41;;;;;;;1.00;0.73;;;;;;;-2.78;100.00;99903.59;4960627;28;20414;-63
2022/01/08 02:22:26;;;;;;;2.92;1.10;;;;;;;-2.76;100.00;99903.63;4973116;28;20117;-61
2022/01/08 02:25:10;;;;;;;4.55;0.95;;;;;;;-2.95;100.00;99904.72;4986300;28;20053;-61
2022/01/08 02:27:55;;;;;;;1.50;0.85;;;;;;;-2.80;100.00;99915.63;4988743;28;20058;-64
2022/01/08 02:30:40;;;;;;;2.40;0.82;;;;;;;-2.82;100.00;99898.22;4975554;28;20544;-61
2022/01/08 02:33:27;;;;;;;1.98;0.82;;;;;;;-2.95;100.00;99914.19;4959562;28;20717;-65
2022/01/08 02:36:13;;;;;;;1.27;0.90;;;;;;;-2.93;100.00;99921.19;4959453;28;20097;-60
2022/01/08 02:38:58;;;;;;;1.70;0.90;;;;;;;-2.61;100.00;99943.97;4951614;28;20196;-61
2022/01/08 02:41:43;;;;;;;2.35;1.10;;;;;;;-2.67;100.00;99929.88;4968179;28;20046;-62
2022/01/08 02:44:29;;;;;;;1.92;1.10;;;;;;;-2.58;100.00;99943.19;4963209;28;20061;-63
2022/01/08 02:47:16;;;;;;;1.15;0.85;;;;;;;-2.67;100.00;99935.97;4969155;28;20062;-62
2022/01/08 02:50:01;;;;;;;1.33;0.80;;;;;;;-2.69;100.00;99947.13;4960015;28;20110;-61
2022/01/08 02:52:48;;;;;;;1.67;1.20;;;;;;;-2.49;100.00;99962.53;4956657;28;20085;-65
2022/01/08 02:55:33;;;;;;;2.20;1.00;;;;;;;-2.49;100.00;99961.69;4955526;28;20077;-62
2022/01/08 02:58:18;;;;;;;2.60;1.10;;;;;;;-2.47;100.00;99971.28;4970529;28;20419;-63
2022/01/08 03:01:03;;;;;;;2.20;0.95;;;;;;;-2.48;100.00;99973.81;4960073;28;20109;-61
2022/01/08 03:03:49;;;;;;;1.38;1.02;;;;;;;-2.61;100.00;99969.03;4968428;28;20053;-63
2022/01/08 03:06:34;;;;;;;2.38;1.13;;;;;;;-2.67;100.00;99986.97;4967632;28;20058;-64
2022/01/08 03:09:20;;;;;;;3.13;1.27;;;;;;;-2.70;100.00;99989.47;4954285;28;20050;-67
2022/01/08 03:12:04;;;;;;;;;;;;;;;-2.57;100.00;99995.13;4957328;28;20106;-62
2022/01/08 03:14:49;;;;;;;3.30;1.00;;;;;;;-2.71;100.00;100006.75;4960017;28;19992;-66
2022/01/08 03:17:33;;;;;;;2.75;1.40;;;;;;;-2.50;100.00;100002.31;4954936;28;20057;-64
2022/01/08 03:20:18;;;;;;;2.55;1.17;;;;;;;-2.38;100.00;100014.84;4967939;28;20049;-63
2022/01/08 03:23:05;;;;;;;2.80;1.00;;;;;;;-2.61;100.00;100008.84;4957420;28;20125;-63
2022/01/08 03:25:50;;;;;;;2.50;1.20;;;;;;;-2.60;100.00;100025.28;4964635;28;20045;-67
2022/01/08 03:28:34;;;;;;;2.47;1.00;;;;;;;-2.58;100.00;100027.13;4967121;28;20105;-63
2022/01/08 03:31:23;;;;;;;2.33;1.20;;;;;;;-2.45;100.00;100020.66;4967896;28;20053;-66
2022/01/08 03:34:07;;;;;;;3.00;1.27;;;;;;;-2.40;100.00;100035.56;4968056;28;20202;-63
2022/01/08 03:36:52;;;;;;;3.63;1.05;;;;;;;-2.28;100.00;100033.38;4966718;28;20057;-64
2022/01/08 03:39:36;;;;;;;1.55;1.20;;;;;;;-2.44;100.00;100030.19;4960539;28;20396;-60
2022/01/08 03:42:21;;;;;;;2.33;1.48;;;;;;;-2.37;100.00;100030.44;4959882;28;20194;-62
2022/01/08 03:45:07;;;;;;;2.15;1.13;;;;;;;-2.37;100.00;100029.59;4980000;28;20109;-62
2022/01/08 03:50:36;;;;;;;2.60;1.48;;;;;;;-2.57;100.00;100022.81;4970619;28;20073;-64
2022/01/08 03:53:22;;;;;;;3.65;1.55;;;;;;;-2.43;100.00;100043.22;4988372;28;20111;-61
2022/01/08 03:56:07;;;;;;;4.22;1.65;;;;;;;-2.60;100.00;100043.47;4957278;28;20327;-65
2022/01/08 03:58:52;;;;;;;;;;;;;;;-2.67;100.00;100044.97;4962099;28;20105;-62
2022/01/08 04:01:37;;;;;;;;;;;;;;;-2.62;100.00;100043.41;4962198;28;19925;-65
2022/01/08 04:04:21;;;;;;;;;;;;;;;-2.59;100.00;100053.00;4965513;28;19928;-61
2022/01/08 04:07:06;;;;;;;;;;;;;;;-2.69;100.00;100054.38;4972913;28;20389;-64
2022/01/08 04:09:50;;;;;;;;;;;;;;;-2.72;100.00;100051.69;4973447;28;19929;-58
2022/01/08 04:12:45;;;;;;;;;;;;;;;-2.66;100.00;100056.19;4979025;28;20365;-58
2022/01/08 04:15:36;;;;;;;;;;;;;;;-2.59;100.00;100068.56;4991336;28;20254;-59
2022/01/08 04:18:22;;;;;;;;;;;;;;;-2.68;100.00;100068.25;4951864;28;19988;-63
2022/01/08 04:24:09;;;;;;;;;;;;;;;-2.75;100.00;100072.34;4979139;28;19928;-62
2022/01/08 04:26:54;;;;;;;;;;;;;;;-2.77;100.00;100067.91;4989237;28;20000;-65
2022/01/08 04:29:39;;;;;;;;;;;;;;;-2.79;100.00;100079.94;4973754;28;19976;-67
2022/01/08 04:32:24;;;;;;;;;;;;;;;-2.92;100.00;100080.31;4959850;28;20413;-65
2022/01/08 04:35:08;;;;;;;;;;;;;;;-2.98;100.00;100077.47;4989572;28;19928;-66
2022/01/08 04:37:53;;;;;;;;;;;;;;;-2.98;100.00;100083.56;4973613;28;19980;-62
2022/01/08 04:40:38;;;;;;;;;;;;;;;-2.94;100.00;100080.25;4939069;28;19929;-66
2022/01/08 04:43:23;;;;;;;;;;;;;;;-2.90;100.00;100089.03;4974374;28;19931;-63
2022/01/08 04:46:08;;;;;;;;;;;;;;;-2.87;100.00;100094.34;4988397;28;20037;-60
2022/01/08 04:48:53;;;;;;;;;;;;;;;-2.96;100.00;100097.47;4968884;28;19949;-63
2022/01/08 04:51:37;;;;;;;;;;;;;;;-2.87;100.00;100103.00;4956953;28;20432;-62
2022/01/08 04:54:22;;;;;;;;;;;;;;;-2.81;100.00;100107.56;4980747;28;19929;-65
2022/01/08 04:57:07;;;;;;;;;;;;;;;-2.73;100.00;100099.22;4980622;28;19928;-66
2022/01/08 04:59:52;;;;;;;;;;;;;;;-2.75;100.00;100106.06;4968466;28;19994;-67
2022/01/08 05:02:37;;;;;;;;;;;;;;;-2.73;100.00;100113.91;4989591;28;19944;-63
2022/01/08 05:05:22;;;;;;;;;;;;;;;-2.57;100.00;100119.72;4977084;28;19929;-67
2022/01/08 05:08:07;;;;;;;;;;;;;;;-2.51;100.00;100126.84;4984212;28;19928;-71
2022/01/08 05:10:52;;;;;;;;;;;;;;;-2.50;100.00;100126.91;4966352;28;19928;-66
2022/01/08 05:13:38;;;;;;;;;;;;;;;-2.53;100.00;100136.28;4957389;28;19979;-65
2022/01/08 05:16:25;;;;;;;;;;;;;;;-2.56;100.00;100128.38;4952838;28;19933;-64
2022/01/08 05:19:11;;;;;;;;;;;;;;;-2.58;100.00;100140.41;4959504;28;19968;-62
2022/01/08 05:21:58;;;;;;;;;;;;;;;-2.61;100.00;100153.28;4982553;28;19933;-63
2022/01/08 05:24:43;;;;;;;;;;;;;;;-2.61;100.00;100164.53;4974300;28;20002;-62
2022/01/08 05:27:28;;;;;;;;;;;;;;;-2.46;100.00;100166.84;4971442;28;19977;-66
2022/01/08 05:30:14;;;;;;;;;;;;;;;-2.53;100.00;100170.03;4987238;28;19929;-66
2022/01/08 05:33:02;;;;;;;;;;;;;;;-2.50;100.00;100157.19;4951779;28;19968;-69
2022/01/08 05:35:46;;;;;;;;;;;;;;;-2.60;100.00;100163.75;4957782;28;19976;-68
2022/01/08 05:38:31;;;;;;;;;;;;;;;-2.48;100.00;100158.09;4980636;28;19929;-63
2022/01/08 05:41:15;;;;;;;;;;;;;;;-2.45;100.00;100174.66;4976241;28;19945;-65
2022/01/08 05:44:00;;;;;;;;;;;;;;;-2.41;100.00;100183.47;4985497;28;20397;-66
2022/01/08 05:46:47;;;;;;;;;;;;;;;-2.45;100.00;100182.47;4972702;28;19948;-63
2022/01/08 05:49:32;;;;;;;;;;;;;;;-2.41;100.00;100189.53;4987132;28;19933;-67
2022/01/08 05:52:16;;;;;;;;;;;;;;;-2.44;100.00;100196.34;4990389;28;19929;-68
2022/01/08 05:55:01;;;;;;;;;;;;;;;-2.49;100.00;100208.25;4986760;28;20405;-66
2022/01/08 05:57:47;;;;;;;;;;;;;;;-2.42;100.00;100199.88;4985590;28;19996;-65
2022/01/08 06:00:31;;;;;;;;;;;;;;;-2.38;100.00;100207.81;4987160;28;20000;-66
2022/01/08 06:03:17;;;;;;;;;;;;;;;-2.34;100.00;100219.22;4958560;28;19943;-64
2022/01/08 06:06:01;;;;;;;;;;;;;;;-2.28;100.00;100228.13;4965616;28;20112;-64
2022/01/08 06:08:46;;;;;;;;;;;;;;;-2.34;100.00;100233.06;4973570;28;20401;-62
2022/01/08 06:11:31;;;;;;;;;;;;;;;-2.49;100.00;100232.50;4984552;28;19929;-63
2022/01/08 06:14:15;;;;;;;;;;;;;;;-2.47;100.00;100233.44;4972197;28;19928;-62
2022/01/08 06:16:59;;;;;;;;;;;;;;;-2.55;100.00;100234.88;4968505;28;19936;-64
2022/01/08 06:19:44;;;;;;;;;;;;;;;-2.62;100.00;100238.03;4962346;28;19929;-64
2022/01/08 06:22:28;;;;;;;;;;;;;;;-2.58;100.00;100254.59;4974862;28;20734;-62
2022/01/08 06:25:13;;;;;;;;;;;;;;;-2.58;100.00;100263.28;4953949;28;19972;-64
2022/01/08 06:27:57;;;;;;;;;;;;;;;-2.64;100.00;100272.53;4965851;28;19969;-65
2022/01/08 06:30:42;;;;;;;;;;;;;;;-2.57;100.00;100278.03;4976791;28;19976;-62
2022/01/08 06:33:26;;;;;;;;;;;;;;;-2.56;100.00;100276.31;4986000;28;20364;-64
2022/01/08 06:36:11;;;;;;;;;;;;;;;-2.62;100.00;100276.97;4957179;28;19929;-68
2022/01/08 06:38:55;;;;;;;;;;;;;;;-2.60;100.00;100277.03;4975452;28;19928;-64
2022/01/08 06:41:40;;;;;;;;;;;;;;;-2.58;100.00;100284.06;4959072;28;19929;-64
2022/01/08 06:44:24;;;;;;;;;;;;;;;-2.67;100.00;100281.09;4972392;28;20024;-66
2022/01/08 06:47:08;;;;;;;;;;;;;;;-2.53;100.00;100281.66;4954104;28;20020;-64
2022/01/08 06:49:53;;;;;;;;;;;;;;;-2.51;100.00;100282.56;4969339;28;19933;-64
2022/01/08 06:52:38;;;;;;;;;;;;;;;-2.60;100.00;100293.50;4971532;28;20280;-65
2022/01/08 06:55:22;;;;;;;;;;;;;;;-2.52;100.00;100297.28;4983226;28;19985;-62
2022/01/08 06:58:07;;;;;;;;;;;;;;;-2.58;100.00;100294.44;4982444;28;19932;-63
2022/01/08 07:00:52;;;;;;;;;;;;;;;-2.47;100.00;100293.16;4983510;28;19953;-63
2022/01/08 07:03:36;;;;;;;;;;;;;;;-2.47;100.00;100310.41;4980674;28;19984;-62
2022/01/08 07:06:22;;;;;;;;;;;;;;;-2.50;100.00;100308.59;4968604;28;20080;-64
2022/01/08 07:09:06;;;;;;;;;;;;;;;-2.50;100.00;100321.56;4982885;28;19988;-66
2022/01/08 07:11:51;;;;;;;;;;;;;;;-2.56;100.00;100304.88;4969256;28;19976;-63
2022/01/08 07:14:35;;;;;;;;;;;;;;;-2.51;100.00;100314.63;4975521;28;19933;-63
2022/01/08 07:17:21;;;;;;;;;;;;;;;-2.48;100.00;100329.44;4985175;28;19929;-62
2022/01/08 07:20:06;;;;;;;;;;;;;;;-2.43;100.00;100326.19;4974661;28;20027;-64
2022/01/08 07:22:51;;;;;;;;;;;;;;;-2.31;100.00;100316.28;4959540;28;20302;-62
2022/01/08 07:25:36;;;;;;;;;;;;;;;-2.24;100.00;100310.53;4988326;28;19928;-64
2022/01/08 07:28:20;;;;;;;;;;;;;;;-2.18;100.00;100304.69;4967692;28;19967;-62
2022/01/08 07:31:05;;;;;;;;;;;;;;;-2.12;100.00;100311.00;4985113;28;19992;-62
2022/01/08 07:33:49;;;;;;;;;;;;;;;-2.11;100.00;100325.75;4984952;28;19929;-64
2022/01/08 07:36:34;;;;;;;;;;;;;;;-1.97;100.00;100318.47;4969683;28;19928;-63
2022/01/08 07:39:19;;;;;;;;;;;;;;;-1.67;100.00;100323.09;4980613;28;19928;-64
2022/01/08 07:42:03;;;;;;;;;;;;;;;-1.38;100.00;100319.81;4959362;28;20364;-62
2022/01/08 07:44:50;;;;;;;;;;;;;;;-1.25;100.00;100328.97;4982706;28;19980;-61
2022/01/08 07:47:34;;;;;;;;;;;;;;;-1.28;100.00;100331.44;4967180;28;19932;-62
2022/01/08 07:50:19;;;;;;;;;;;;;;;-1.18;100.00;100339.63;4974059;28;19929;-61
2022/01/08 07:53:03;;;;;;;;;;;;;;;-1.29;100.00;100327.09;4973988;28;20075;-67
2022/01/08 07:55:48;;;;;;;;;;;;;;;-1.43;100.00;100333.50;4988887;28;19929;-68
2022/01/08 07:58:32;;;;;;;;;;;;;;;-1.47;100.00;100342.00;4986184;28;19944;-68
2022/01/08 08:01:17;;;;;;;;;;;;;;;-1.52;100.00;100338.38;4981864;28;19945;-65
2022/01/08 08:04:03;;;;;;;;;;;;;;;-1.61;100.00;100361.44;4954058;28;19936;-71
2022/01/08 08:06:49;;;;;;;;;;;;;;;-1.50;100.00;100358.38;4971612;28;19929;-71
2022/01/08 08:09:34;;;;;;;;;;;;;;;-1.45;100.00;100355.97;4945218;28;19933;-68
2022/01/08 08:12:19;;;;;;;;;;;;;;;-1.44;100.00;100362.94;4974333;28;20448;-66
2022/01/08 08:15:04;;;;;;;;;;;;;;;-1.40;100.00;100372.63;4955051;28;19949;-67
2022/01/08 08:17:49;;;;;;;;;;;;;;;-1.31;100.00;100372.94;4958578;28;19940;-67
2022/01/08 08:20:34;;;;;;;;;;;;;;;-1.29;100.00;100373.91;4987629;28;20388;-67
2022/01/08 08:23:20;;;;;;;;;;;;;;;-1.29;100.00;100377.41;4988524;28;19932;-68
2022/01/08 08:26:04;;;;;;;;;;;;;;;-1.14;100.00;100384.88;4970558;28;20836;-65
2022/01/08 08:28:49;;;;;;;;;;;;;;;-0.99;100.00;100390.63;4987878;28;19928;-64
2022/01/08 08:31:34;;;;;;;;;;;;;;;-0.93;100.00;100390.81;4990274;28;19928;-66
2022/01/08 08:34:19;;;;;;;;;;;;;;;-0.84;100.00;100381.63;4975193;28;20477;-69
2022/01/08 08:37:05;;;;;;;;;;;;;;;-0.83;100.00;100399.00;4983418;28;19929;-64
2022/01/08 08:39:49;;;;;;;;;;;;;;;-0.79;100.00;100397.41;4966170;28;20402;-73
2022/01/08 08:42:35;;;;;;;;;;;;;;;-0.86;100.00;100392.81;4968539;28;19933;-65
2022/01/08 08:45:23;;;;;;;;;;;;;;;-0.81;100.00;100391.25;4983509;28;19976;-68
2022/01/08 08:48:07;;;;;;;;;;;;;;;-0.74;100.00;100399.31;4969908;28;19928;-69
2022/01/08 08:50:52;;;;;;;;;;;;;;;-0.86;100.00;100392.81;4955216;28;19969;-66
2022/01/08 08:53:37;;;;;;;;;;;;;;;-0.84;100.00;100391.13;4968533;28;19929;-66
2022/01/08 08:56:22;;;;;;;;;;;;;;;-1.01;100.00;100390.56;4973293;28;20017;-65
2022/01/08 08:59:07;;;;;;;;;;;;;;;-0.87;100.00;100394.50;4981322;28;19968;-64
2022/01/08 09:01:51;;;;;;;;;;;;;;;-0.81;100.00;100391.25;4973608;28;20348;-66
2022/01/08 09:04:40;;;;;;;;;;;;;;;-0.76;100.00;100394.88;4957233;28;19932;-71
2022/01/08 09:07:25;;;;;;;;;;;;;;;-0.55;100.00;100406.91;4966445;28;19928;-65
2022/01/08 09:10:11;;;;;;;;;;;;;;;-0.47;100.00;100401.97;4984324;28;19928;-68
2022/01/08 09:12:56;;;;;;;;;;;;;;;-0.50;100.00;100409.69;4969389;28;19971;-64
2022/01/08 09:15:41;;;;;;;;;;;;;;;-0.29;100.00;100410.38;4969504;28;19944;-68
2022/01/08 09:18:26;;;;;;;;;;;;;;;-0.26;100.00;100421.81;4956067;28;19994;-76
2022/01/08 09:21:12;;;;;;;;;;;;;;;-0.03;100.00;100415.59;4987081;28;19983;-77
2022/01/08 09:23:57;;;;;;;;;;;;;;;0.08;100.00;100428.09;4942211;28;19972;-74
2022/01/08 09:26:42;;;;;;;;;;;;;;;0.12;100.00;100437.78;4972411;28;19972;-75
2022/01/08 09:29:27;;;;;;;;;;;;;;;0.17;100.00;100430.16;4966206;28;20019;-75
2022/01/08 09:32:12;;;;;;;;;;;;;;;0.94;100.00;100431.63;4966558;28;19944;-68
2022/01/08 09:34:58;;;;;;;;;;;;;;;2.36;100.00;100431.84;4970639;28;19948;-68
2022/01/08 09:37:44;;;;;;;;;;;;;;;3.39;100.00;100436.69;4971540;28;20401;-74
2022/01/08 09:40:29;;;;;;;;;;;;;;;4.97;100.00;100436.63;4954053;28;19943;-69
2022/01/08 09:43:15;;;;;;;;;;;;;;;6.21;96.93;100437.09;4970942;28;19932;-66
2022/01/08 09:45:59;;;;;;;;;;;;;;;6.67;83.34;100446.22;4965457;28;20080;-66
2022/01/08 09:48:44;;;;;;;;;;;;;;;6.51;83.99;100436.44;4954133;28;19972;-65
2022/01/08 09:51:29;;;;;;;;;;;;;;;6.07;77.26;100437.84;4960254;28;19932;-79
2022/01/08 09:54:14;;;;;;;;;;;;;;;4.48;93.45;100447.34;4970558;28;19984;-66
2022/01/08 09:57:02;;;;;;;;;;;;;;;3.96;100.00;100444.75;4983261;28;20080;-65
2022/01/08 09:59:50;;;;;;;;;;;;;;;3.18;100.00;100435.41;4981133;28;20298;-68
2022/01/08 10:02:35;;;;;;;;;;;;;;;2.72;100.00;100437.91;4971945;28;19995;-63
2022/01/08 10:05:21;;;;;;;;;;;;;;;2.02;100.00;100438.03;4983584;28;19975;-72
2022/01/08 10:08:12;;;;;;;;;;;;;;;1.60;100.00;100443.91;4954618;28;20398;-69
2022/01/08 10:11:02;;;;;;;;;;;;;;;0.87;100.00;100450.56;4968634;28;19956;-67
2022/01/08 10:13:58;;;;;;;;;;;;;;;0.70;100.00;100454.41;4957010;28;19943;-68
2022/01/08 10:19:48;;;;;;;;;;;;;;;0.36;100.00;100469.84;4989267;28;19945;-71
2022/01/08 10:22:33;;;;;;;;;;;;;;;0.33;100.00;100472.38;4955885;28;20277;-77
2022/01/08 10:25:18;;;;;;;;;;;;;;;0.46;100.00;100464.97;4949457;28;19933;-72
2022/01/08 10:28:03;;;;;;;;;;;;;;;0.34;100.00;100477.63;4964278;28;20238;-66
2022/01/08 10:30:48;;;;;;;;;;;;;;;0.16;100.00;100476.16;4978934;28;19944;-66
2022/01/08 10:33:32;;;;;;;;;;;;;;;-0.06;100.00;100474.56;4969902;28;20407;-67
2022/01/08 10:36:25;;;;;;;;;;;;;;;-0.30;100.00;100474.66;4952553;28;19977;-73
2022/01/08 10:39:12;;;;;;;;;;;;;;;-0.35;100.00;100473.59;4967340;28;20821;-76
2022/01/08 10:41:58;;;;;;;;;;;;;;;-0.57;100.00;100476.31;4927229;28;20406;-70
2022/01/08 10:44:46;;;;;;;;;;;;;;;-0.71;100.00;100477.53;4972909;28;20262;-66
2022/01/08 10:47:31;;;;;;;;;;;;;;;-0.69;100.00;100486.28;4968167;28;19928;-66
2022/01/08 10:50:21;;;;;;;;;;;;;;;-0.54;100.00;100486.84;4983221;28;20373;-67
2022/01/08 10:53:06;;;;;;;;;;;;;;;-0.45;100.00;100481.94;4970833;28;20007;-72
2022/01/08 10:55:51;;;;;;;;;;;;;;;-0.51;100.00;100479.09;4958891;28;19944;-76
2022/01/08 10:58:43;;;;;;;;;;;;;;;-0.57;100.00;100491.03;4975033;28;20068;-71
2022/01/08 11:01:35;;;;;;;;;;;;;;;-0.57;100.00;100501.44;4977646;28;19963;-77
2022/01/08 11:04:41;;;;;;;;;;;;;;;-0.26;100.00;100504.28;4961178;28;20381;-73
2022/01/08 11:07:27;;;;;;;;;;;;;;;0.13;100.00;100514.31;4987403;28;20408;-72
2022/01/08 11:10:21;;;;;;;;;;;;;;;-0.06;100.00;100509.34;4970027;28;19947;-74
2022/01/08 11:13:09;;;;;;;;;;;;;;;-0.14;100.00;100505.59;4956858;28;19956;-73
2022/01/08 11:15:55;;;;;;;;;;;;;;;-0.20;100.00;100514.91;4961285;28;20004;-67
2022/01/08 11:18:39;;;;;;;;;;;;;;;-0.10;100.00;100511.78;4972805;28;19928;-67
2022/01/08 11:21:25;;;;;;;;;;;;;;;-0.32;100.00;100523.19;4988790;28;20424;-67
2022/01/08 11:24:10;;;;;;;;;;;;;;;-0.30;100.00;100523.25;4985782;28;20338;-68
2022/01/08 11:26:56;;;;;;;;;;;;;;;-0.25;100.00;100517.38;4982264;28;19933;-64
2022/01/08 11:29:43;;;;;;;;;;;;;;;0.09;100.00;100517.66;4954027;28;19948;-77
2022/01/08 11:32:28;;;;;;;;;;;;;;;0.03;100.00;100514.88;4945074;28;19928;-66
2022/01/08 11:35:14;;;;;;;;;;;;;;;0.06;100.00;100514.09;4987223;28;19954;-69
2022/01/08 11:38:06;;;;;;;;;;;;;;;0.24;100.00;100521.63;4960117;28;19944;-65
2022/01/08 11:40:53;;;;;;;;;;;;;;;0.12;100.00;100526.44;4964711;28;20368;-65
2022/01/08 11:43:38;;;;;;;;;;;;;;;0.08;100.00;100524.56;4956262;28;19932;-69
2022/01/08 11:46:24;;;;;;;;;;;;;;;0.05;100.00;100528.81;4956009;28;19928;-65
2022/01/08 11:49:09;;;;;;;;;;;;;;;-0.07;100.00;100528.41;4944260;28;20053;-65
2022/01/08 11:52:23;;;;;;;;;;;;;;;-0.11;100.00;100546.53;4984365;28;19984;-71
2022/01/08 11:55:08;;;;;;;;;;;;;;;-0.49;100.00;100547.78;4920668;29;19929;-70
2022/01/08 11:58:12;;;;;;;;;;;;;;;-0.30;100.00;100550.22;4899359;29;19929;-71
2022/01/08 12:01:01;;;;;;;;;;;;;;;-0.11;100.00;100557.81;4926470;29;19945;-77
2022/01/08 12:03:50;;;;;;;;;;;;;;;-0.24;100.00;100570.34;4915430;29;19958;-66
2022/01/08 12:06:38;;;;;;;;;;;;;;;-0.52;100.00;100572.81;4913785;29;19933;-68
2022/01/08 12:09:23;;;;;;;;;;;;;;;-0.67;100.00;100572.28;4924576;29;19930;-68
2022/01/08 12:12:08;;;;;;;;;;;;;;;-0.79;100.00;100564.88;4912855;29;20394;-71
2022/01/08 12:14:52;;;;;;;;;;;;;;;-1.12;100.00;100571.41;4913211;29;20356;-72
2022/01/08 12:17:52;;;;;;;;;;;;;;;-0.75;100.00;100561.56;4913432;29;19971;-67
2022/01/08 12:20:52;;;;;;;;;;;;;;;-0.88;100.00;100574.03;4910515;29;19929;-65
2022/01/08 12:23:38;;;;;;;;;;;;;;;-1.04;100.00;100579.50;4913834;29;20034;-66
2022/01/08 12:26:27;;;;;;;;;;;;;;;-1.16;100.00;100574.72;4916103;29;19930;-62
2022/01/08 12:29:31;;;;;;;;;;;;;;;-1.21;100.00;100577.97;4911419;29;19929;-68
2022/01/08 12:32:18;;;;;;;;;;;;;;;-1.54;100.00;100590.50;4965934;28;19932;-66
2022/01/08 12:35:36;;;;;;;;;;;;;;;-1.67;100.00;100588.25;4960876;28;19929;-66
2022/01/08 12:38:25;;;;;;;;;;;;;;;-1.63;100.00;100584.94;4947478;28;20498;-64
2022/01/08 12:41:18;;;;;;;;;;;;;;;-1.61;100.00;100583.31;4955409;28;20028;-66
2022/01/08 12:44:21;;;;;;;;;;;;;;;-1.82;100.00;100585.00;4956879;28;20020;-72
2022/01/08 12:47:06;;;;;;;;;;;;;;;-1.47;100.00;100591.63;4976242;28;19972;-68
2022/01/08 12:50:10;;;;;;;;;;;;;;;-1.38;100.00;100585.09;4949503;28;19928;-67
2022/01/08 12:53:03;;;;;;;;;;;;;;;-1.52;100.00;100577.56;4945748;28;20021;-68
2022/01/08 12:56:08;;;;;;;;;;;;;;;-1.24;100.00;100588.25;4965275;28;20009;-70
2022/01/08 12:59:04;;;;;;;;;;;;;;;-1.19;100.00;100584.13;4941400;28;19944;-67
2022/01/08 13:01:49;;;;;;;;;;;;;;;-1.36;100.00;100583.47;4975859;28;19977;-67
2022/01/08 13:04:36;;;;;;;;;;;;;;;-1.04;100.00;100593.41;4939541;28;19976;-67
2022/01/08 13:07:21;;;;;;;;;;;;;;;-1.32;100.00;100598.34;4960839;28;19929;-68
2022/01/08 13:10:07;;;;;;;;;;;;;;;-1.36;100.00;100598.16;4972000;28;20460;-66
2022/01/08 13:13:02;;;;;;;;;;;;;;;-1.37;100.00;100609.41;4974948;28;19933;-66
2022/01/08 13:15:47;;;;;;;;;;;;;;;-1.44;100.00;100603.06;4961363;28;20064;-67
2022/01/08 13:18:31;;;;;;;;;;;;;;;-1.47;100.00;100607.25;4956972;28;19977;-67
2022/01/08 13:21:17;;;;;;;;;;;;;;;-1.46;100.00;100609.03;4969788;28;20235;-69
2022/01/08 13:24:22;;;;;;;;;;;;;;;-1.37;100.00;100610.31;4969465;28;20684;-68
2022/01/08 13:27:08;;;;;;;;;;;;;;;-1.46;100.00;100602.09;4985150;28;19928;-66
2022/01/08 13:29:56;;;;;;;;;;;;;;;-1.51;100.00;100607.94;4951700;28;20065;-66
2022/01/08 13:32:41;;;;;;;;;;;;;;;-1.64;100.00;100595.28;4982594;28;19929;-68
2022/01/08 13:35:26;;;;;;;;;;;;;;;-1.46;100.00;100598.63;4986827;28;19968;-67
2022/01/08 13:38:11;;;;;;;;;;;;;;;-1.56;100.00;100592.16;4956706;28;20068;-68
2022/01/08 13:40:56;;;;;;;;;;;;;;;-1.68;100.00;100582.97;4989821;28;19991;-65
2022/01/08 13:43:58;;;;;;;;;;;;;;;-1.59;100.00;100573.84;4953362;28;19941;-68
2022/01/08 13:46:45;;;;;;;;;;;;;;;-1.75;100.00;100583.53;4957416;28;19976;-66
2022/01/08 13:49:31;;;;;;;;;;;;;;;-1.95;100.00;100589.63;4942649;28;19927;-67
2022/01/08 13:52:38;;;;;;;;;;;;;;;-1.91;100.00;100594.13;4967590;28;20452;-67
2022/01/08 13:55:30;;;;;;;;;;;;;;;-2.10;100.00;100602.84;4941775;28;19928;-68
2022/01/08 13:58:16;;;;;;;;;;;;;;;-1.92;100.00;100621.84;4969958;28;20338;-67
2022/01/08 14:01:06;;;;;;;;;;;;;;;-1.47;100.00;100615.94;4974091;28;20300;-67
2022/01/08 14:03:52;;;;;;;;;;;;;;;-1.64;100.00;100610.88;4970977;28;19928;-67
2022/01/08 14:06:39;;;;;;;;;;;;;;;-1.76;100.00;100619.06;4982024;28;19928;-68
2022/01/08 14:09:24;;;;;;;;;;;;;;;-1.75;100.00;100618.22;4957294;28;20010;-68
2022/01/08 14:12:13;;;;;;;;;;;;;;;-1.60;100.00;100624.06;4953192;28;19971;-71
2022/01/08 14:15:03;;;;;;;;;;;;;;;-1.52;100.00;100624.38;4985146;28;19928;-72